EBCI - Charleroi/Gosselies, Belgium
Distance de la station: NE 18km
Mise à jour: 25/11/2020 21:00
unable to load EBCI data RC=
unable to load EBCI data RC=
 
EBFS - Florennes, Belgium
Distance de la station: ESE 31km
Mise à jour: 25/11/2020 20:25
couvert
couvert
 Wind from S
Vent: S 15 km/h
Température: 7°C
Température ressentie: 4°C
Point de rosée: 5°C
Humidité: 87%
Baromètre: 1018 hPa
Ciel: couvert
Visibilité: 10 km
Détails du ciel: principalement nuageux 914 m
couvert 3353 m
2020/11/25 19:25 EBFS 251925Z AUTO 18008KT 9999 BKN030/// OVC110/// 07/05 Q1018 BLU
EBCV - Chievres, Belgium
Distance de la station: NO 40km
Mise à jour: 25/11/2020 20:25
clair
clair
 Wind from S
Vent: S 13 km/h
Température: 8°C
Température ressentie: 6°C
Point de rosée: 6°C
Humidité: 87%
Baromètre: 1017 hPa
Ciel: clair
2020/11/25 19:25 EBCV 251925Z AUTO 18007KT //// NCD 08/06 Q1017
 
EBBE - Beauvechain, Belgium
Distance de la station: NE 57km
Mise à jour: 25/11/2020 20:25
principalement nuageux
principalement nuageux
 Wind from SSO
Vent: SSO 17 km/h
Température: 8°C
Température ressentie: 5°C
Point de rosée: 6°C
Humidité: 87%
Baromètre: 1018 hPa
Ciel: principalement nuageux
Visibilité: 10 km
Détails du ciel: principalement nuageux 1280 m
2020/11/25 19:25 EBBE 251925Z AUTO 21009KT 9999 BKN042/// 08/06 Q1018 BLU
EBBR - Brussels National, Belgium
Distance de la station: NNE 63km
Mise à jour: 25/11/2020 20:50
partiellement nuageux
partiellement nuageux
 Wind from S
Vent: S 17 km/h
Température: 8°C
Température ressentie: 5°C
Point de rosée: 6°C
Humidité: 87%
Baromètre: 1018 hPa
Ciel: partiellement nuageux
Visibilité: 10 km
Détails du ciel: partiellement nuageux 1280 m
2020/11/25 19:50 EBBR 251950Z 19009KT 9999 SCT042 08/06 Q1018 NOSIG
LFQI - Cambrai/Epinoy, France
Distance de la station: O 82km
Mise à jour: 29/06/2012 12:30
NOT Current

 Wind from SO
Vent: SO 17 km/h
Température: 18°C
Point de rosée: 14°C
Humidité: 78%
Baromètre: 1009 hPa
2012/06/29 10:30 LFQI 291030Z AUTO 22009KT //// // ///////// 18/14 Q1009
 
LFQQ - Lille/Lesquin, France
Distance de la station: ONO 86km
Mise à jour: 25/11/2020 20:30
principalement nuageux
principalement nuageux
 Wind from SE
Vent: SE 11 km/h
Température: 8°C
Température ressentie: 6°C
Point de rosée: 7°C
Humidité: 93%
Baromètre: 1017 hPa
Ciel: principalement nuageux
Visibilité: 10 km
Détails du ciel: partiellement nuageux 1036 m
partiellement nuageux 1707 m
principalement nuageux 2743 m
2020/11/25 19:30 LFQQ 251930Z AUTO 14006KT 9999 SCT034 SCT056 BKN090 08/07 Q1017 NOSIG
EBLG - Bierset/Liege, Belgium
Distance de la station: ENE 89km
Mise à jour: 25/11/2020 20:50
principalement nuageux
principalement nuageux
 Wind from S
Vent: S 15 km/h
Température: 9°C
Température ressentie: 7°C
Point de rosée: 5°C
Humidité: 76%
Baromètre: 1018 hPa
Ciel: principalement nuageux
Visibilité: 10 km
Détails du ciel: principalement nuageux 945 m
2020/11/25 19:50 EBLG 251950Z 18008KT 9999 BKN031 09/05 Q1018 NOSIG
EBDT - Schaffen, Belgium
Distance de la station: NE 93km
Mise à jour: 25/11/2020 20:25
principalement nuageux
principalement nuageux
 Wind from S
Vent: S 13 km/h
Température: 9°C
Température ressentie: 7°C
Point de rosée: 6°C
Humidité: 82%
Baromètre: 1018 hPa
Ciel: principalement nuageux
Visibilité: 10 km
Détails du ciel: quelques nuages 945 m
principalement nuageux 1372 m
2020/11/25 19:25 EBDT 251925Z AUTO 19007KT 9999 FEW031/// BKN045/// 09/06 Q1018 BLU
 
EBAW - Antwerp/Deurne, Belgium
Distance de la station: N 96km
Mise à jour: 25/11/2020 20:50
principalement nuageux
principalement nuageux
 Wind from SSO
Vent: SSO 9 km/h
Température: 10°C
Température ressentie: 9°C
Point de rosée: 6°C
Humidité: 76%
Baromètre: 1018 hPa
Ciel: principalement nuageux
Visibilité: 10 km
Détails du ciel: principalement nuageux 1494 m
2020/11/25 19:50 EBAW 251950Z 20005KT 9999 BKN049 10/06 Q1018 NOSIG
LFAQ - Bray, France
Distance de la station: OSO 119km
Mise à jour: 25/11/2020 20:30
principalement nuageux
principalement nuageux
 Wind from SSE
Vent: SSE 19 km/h
Température: 8°C
Température ressentie: 4°C
Point de rosée: 7°C
Humidité: 93%
Baromètre: 1017 hPa
Ciel: principalement nuageux
Visibilité: 8 km
Détails du ciel: principalement nuageux 1036 m
2020/11/25 19:30 LFAQ 251930Z AUTO 16010KT 8000 BKN034 08/07 Q1017
LFSR - Reims/Champagne, France
Distance de la station: S 120km
Mise à jour: 16/04/2012 09:00
NOT Current
partiellement nuageux
partiellement nuageux
 Wind from N
Vent: N 17 km/h
Température: 4°C
Température ressentie: 0°C
Point de rosée: 0°C
Humidité: 75%
Baromètre: 1022 hPa
Ciel: partiellement nuageux
Visibilité: 10 km
2012/04/16 07:00 LFSR 160700Z AUTO 01009KT 340V070 9999 NSC 04/00 Q1022
 
EHWO - Woensdrecht, Netherlands
Distance de la station: N 122km
Mise à jour: 25/11/2020 20:55
couvert
couvert
 Wind from OSO
Vent: OSO 9 km/h
Température: 9°C
Température ressentie: 7°C
Point de rosée: 7°C
Humidité: 87%
Baromètre: 1017 hPa
Ciel: couvert
Visibilité: 10 km
Détails du ciel: quelques nuages 640 m
principalement nuageux 792 m
couvert 884 m
2020/11/25 19:55 EHWO 251955Z AUTO 24005KT 9999 FEW021 BKN026 OVC029 09/07 Q1017 BLU
EHBK - Zuid-Limburg, Netherlands
Distance de la station: ENE 123km
Mise à jour: 25/11/2020 20:55
couvert
couvert
 Wind from S
Vent: S 22 km/h
Température: 9°C
Température ressentie: 6°C
Point de rosée: 5°C
Humidité: 76%
Baromètre: 1018 hPa
Ciel: couvert
Visibilité: 10 km
Détails du ciel: couvert 914 m
2020/11/25 19:55 EHBK 251955Z AUTO 19012KT 9999 OVC030 09/05 Q1018 NOSIG
EBBL - Kleine-Brogel, Belgium
Distance de la station: NE 124km
Mise à jour: 25/11/2020 20:25
clair
clair
 Wind from SSO
Vent: SSO 11 km/h
Température: 8°C
Température ressentie: 6°C
Point de rosée: 6°C
Humidité: 87%
Baromètre: 1018 hPa
Ciel: clair
Visibilité: 10 km
2020/11/25 19:25 EBBL 251925Z AUTO 21006KT 9999 NCD 08/06 Q1018 BLU
 
EBLB - Elsenborn, Belgium
Distance de la station: E 135km
Mise à jour: 25/11/2020 20:49
brume, clair
brume, clair
 Wind from varies
Vent: varies 4 km/h
Température: 2°C
Point de rosée: 2°C
Humidité: 100%
Baromètre: 1019 hPa
Résumé: brume
Ciel: clair
Visibilité: 1 km
2020/11/25 19:49 EBLB 251949Z AUTO VRB02KT 1400 BR NCD 02/02 Q1019 AMB
EBOS - Oostende Airport, Belgium
Distance de la station: NO 136km
Mise à jour: 25/11/2020 20:50
partiellement nuageux
partiellement nuageux
 Wind from S
Vent: S 11 km/h
Température: 9°C
Température ressentie: 7°C
Point de rosée: 7°C
Humidité: 87%
Baromètre: 1017 hPa
Ciel: partiellement nuageux
Visibilité: 8 km
Détails du ciel: partiellement nuageux 1463 m
2020/11/25 19:50 EBOS 251950Z 19006KT 8000 SCT048 09/07 Q1017 NOSIG
EBFN - Koksijde, Belgium
Distance de la station: NO 140km
Mise à jour: 25/11/2020 20:25
couvert
couvert
 Wind from SSO
Vent: SSO 9 km/h
Température: 9°C
Température ressentie: 7°C
Point de rosée: 8°C
Humidité: 94%
Baromètre: 1017 hPa
Ciel: couvert
Visibilité: 6 km
Détails du ciel: couvert 2804 m
2020/11/25 19:25 EBFN 251925Z AUTO 20005KT 6000 OVC092/// 09/08 Q1017 WHT
 
ETNG - Geilenkirchen, Germany
Distance de la station: ENE 142km
Mise à jour: 25/11/2020 20:50
principalement nuageux
principalement nuageux
 Wind from SSO
Vent: SSO 9 km/h
Température: 9°C
Température ressentie: 7°C
Point de rosée: 6°C
Humidité: 82%
Baromètre: 1018 hPa
Ciel: principalement nuageux
Visibilité: 10 km
Détails du ciel: principalement nuageux 914 m
2020/11/25 19:50 ETNG 251950Z 20005KT 9999 BKN030 09/06 Q1018 NOSIG
EHGR - Gilze-Rijen, Netherlands
Distance de la station: NNE 143km
Mise à jour: 25/11/2020 20:55
principalement nuageux
principalement nuageux
 Wind from SO
Vent: SO 7 km/h
Température: 8°C
Température ressentie: 7°C
Point de rosée: 6°C
Humidité: 87%
Baromètre: 1017 hPa
Ciel: principalement nuageux
Visibilité: 10 km
Détails du ciel: principalement nuageux 884 m
2020/11/25 19:55 EHGR 251955Z AUTO 22004KT 9999 BKN029 08/06 Q1017 BLU NOSIG
EHEH - Eindhoven, Netherlands
Distance de la station: NNE 147km
Mise à jour: 25/11/2020 20:55
principalement nuageux
principalement nuageux
 Wind from S
Vent: S 7 km/h
Température: 6°C
Température ressentie: 4°C
Point de rosée: 5°C
Humidité: 93%
Baromètre: 1017 hPa
Ciel: principalement nuageux
Visibilité: 10 km
Détails du ciel: principalement nuageux 7925 m
2020/11/25 19:55 EHEH 251955Z AUTO 19004KT 9999 BKN260 06/05 Q1017 BLU NOSIG
 
ELLX - Luxembourg, Luxembourg
Distance de la station: ESE 162km
Mise à jour: 25/11/2020 20:50
clair
clair
 Wind from varies
Vent: varies 4 km/h
Température: 5°C
Point de rosée: 3°C
Humidité: 87%
Baromètre: 1019 hPa
Résumé: clair
Visibilité: greater than 10 km
2020/11/25 19:50 ELLX 251950Z VRB02KT CAVOK 05/03 Q1019 NOSIG
EHVK - Volkel, Netherlands
Distance de la station: NE 174km
Mise à jour: 25/11/2020 20:55
clair
clair
 Wind from SSO
Vent: SSO 9 km/h
Température: 6°C
Température ressentie: 4°C
Point de rosée: 5°C
Humidité: 93%
Baromètre: 1017 hPa
Ciel: clair
Visibilité: 10 km
2020/11/25 19:55 EHVK 251955Z AUTO 20005KT 160V230 9999 NCD 06/05 Q1017 BLU NOSIG
LFOK - Chalons/Vatry, France
Distance de la station: S 174km
Mise à jour: 25/11/2020 20:30
clair
clair
 Wind from SSE
Vent: SSE 11 km/h
Température: 5°C
Température ressentie: 2°C
Point de rosée: 3°C
Humidité: 87%
Baromètre: 1018 hPa
Résumé: clair
Visibilité: greater than 10 km
2020/11/25 19:30 LFOK 251930Z AUTO 15006KT CAVOK 05/03 Q1018 BECMG 2000 BR
Script from Saratoga-Weather.org